sensor_id;sensor_type;location;lat;lon;timestamp;P1;durP1;ratioP1;P2;durP2;ratioP2
5696;SDS011;2873;50.966;7.210;2023-12-22T00:01:07;1.60;;;0.50;;
5696;SDS011;2873;50.966;7.210;2023-12-22T00:03:33;1.43;;;0.53;;
5696;SDS011;2873;50.966;7.210;2023-12-22T00:05:58;2.03;;;0.70;;
5696;SDS011;2873;50.966;7.210;2023-12-22T00:08:24;1.90;;;0.60;;
5696;SDS011;2873;50.966;7.210;2023-12-22T00:10:49;2.10;;;0.70;;
5696;SDS011;2873;50.966;7.210;2023-12-22T00:13:15;4.30;;;0.73;;
5696;SDS011;2873;50.966;7.210;2023-12-22T00:15:41;4.45;;;0.60;;
5696;SDS011;2873;50.966;7.210;2023-12-22T00:18:09;2.70;;;0.63;;
5696;SDS011;2873;50.966;7.210;2023-12-22T00:20:35;3.05;;;0.60;;
5696;SDS011;2873;50.966;7.210;2023-12-22T00:23:00;2.70;;;0.80;;
5696;SDS011;2873;50.966;7.210;2023-12-22T00:25:26;2.93;;;0.60;;
5696;SDS011;2873;50.966;7.210;2023-12-22T00:27:51;0.97;;;0.50;;
5696;SDS011;2873;50.966;7.210;2023-12-22T00:30:17;2.97;;;0.60;;
5696;SDS011;2873;50.966;7.210;2023-12-22T00:32:43;2.60;;;0.50;;
5696;SDS011;2873;50.966;7.210;2023-12-22T00:35:08;3.40;;;0.60;;
5696;SDS011;2873;50.966;7.210;2023-12-22T00:37:34;5.82;;;0.73;;
5696;SDS011;2873;50.966;7.210;2023-12-22T00:40:00;3.83;;;0.80;;
5696;SDS011;2873;50.966;7.210;2023-12-22T00:42:26;2.53;;;1.40;;
5696;SDS011;2873;50.966;7.210;2023-12-22T00:44:51;3.63;;;1.20;;
5696;SDS011;2873;50.966;7.210;2023-12-22T00:47:17;4.07;;;1.27;;
5696;SDS011;2873;50.966;7.210;2023-12-22T00:49:43;2.53;;;0.82;;
5696;SDS011;2873;50.966;7.210;2023-12-22T00:52:08;2.97;;;0.80;;
5696;SDS011;2873;50.966;7.210;2023-12-22T00:54:34;2.73;;;0.90;;
5696;SDS011;2873;50.966;7.210;2023-12-22T00:56:59;3.30;;;0.60;;
5696;SDS011;2873;50.966;7.210;2023-12-22T00:59:25;4.23;;;0.70;;
5696;SDS011;2873;50.966;7.210;2023-12-22T01:01:50;4.03;;;0.70;;
5696;SDS011;2873;50.966;7.210;2023-12-22T01:04:16;4.80;;;0.80;;
5696;SDS011;2873;50.966;7.210;2023-12-22T01:06:42;7.57;;;0.90;;
5696;SDS011;2873;50.966;7.210;2023-12-22T01:09:07;4.40;;;0.60;;
5696;SDS011;2873;50.966;7.210;2023-12-22T01:11:33;1.83;;;0.60;;
5696;SDS011;2873;50.966;7.210;2023-12-22T01:13:58;3.50;;;0.50;;
5696;SDS011;2873;50.966;7.210;2023-12-22T01:16:24;3.60;;;0.70;;
5696;SDS011;2873;50.966;7.210;2023-12-22T01:18:50;3.43;;;0.73;;
5696;SDS011;2873;50.966;7.210;2023-12-22T01:21:16;8.80;;;1.50;;
5696;SDS011;2873;50.966;7.210;2023-12-22T01:23:42;7.40;;;2.00;;
5696;SDS011;2873;50.966;7.210;2023-12-22T01:26:07;4.78;;;1.30;;
5696;SDS011;2873;50.966;7.210;2023-12-22T01:28:33;4.20;;;1.07;;
5696;SDS011;2873;50.966;7.210;2023-12-22T01:31:00;1.88;;;0.70;;
5696;SDS011;2873;50.966;7.210;2023-12-22T01:33:26;1.98;;;0.93;;
5696;SDS011;2873;50.966;7.210;2023-12-22T01:35:51;4.17;;;0.87;;
5696;SDS011;2873;50.966;7.210;2023-12-22T01:38:17;2.47;;;0.90;;
5696;SDS011;2873;50.966;7.210;2023-12-22T01:40:43;6.00;;;0.90;;
5696;SDS011;2873;50.966;7.210;2023-12-22T01:43:08;4.80;;;0.70;;
5696;SDS011;2873;50.966;7.210;2023-12-22T01:45:34;3.00;;;1.10;;
5696;SDS011;2873;50.966;7.210;2023-12-22T01:48:00;3.33;;;0.80;;
5696;SDS011;2873;50.966;7.210;2023-12-22T01:50:26;4.63;;;0.90;;
5696;SDS011;2873;50.966;7.210;2023-12-22T01:52:52;6.27;;;1.00;;
5696;SDS011;2873;50.966;7.210;2023-12-22T01:55:18;6.22;;;0.80;;
5696;SDS011;2873;50.966;7.210;2023-12-22T01:57:44;0.85;;;0.70;;
5696;SDS011;2873;50.966;7.210;2023-12-22T02:00:11;5.90;;;0.68;;
5696;SDS011;2873;50.966;7.210;2023-12-22T02:02:37;3.80;;;0.73;;
5696;SDS011;2873;50.966;7.210;2023-12-22T02:05:04;2.70;;;0.70;;
5696;SDS011;2873;50.966;7.210;2023-12-22T02:07:30;6.78;;;0.80;;
5696;SDS011;2873;50.966;7.210;2023-12-22T02:09:57;3.65;;;1.20;;
5696;SDS011;2873;50.966;7.210;2023-12-22T02:12:22;9.07;;;1.20;;
5696;SDS011;2873;50.966;7.210;2023-12-22T02:14:48;5.55;;;1.10;;
5696;SDS011;2873;50.966;7.210;2023-12-22T02:17:24;6.70;;;1.10;;
5696;SDS011;2873;50.966;7.210;2023-12-22T02:19:54;2.40;;;0.90;;
5696;SDS011;2873;50.966;7.210;2023-12-22T02:22:22;3.42;;;0.70;;
5696;SDS011;2873;50.966;7.210;2023-12-22T02:24:47;3.57;;;0.90;;
5696;SDS011;2873;50.966;7.210;2023-12-22T02:30:08;6.05;;;1.05;;
5696;SDS011;2873;50.966;7.210;2023-12-22T02:32:40;4.22;;;0.90;;
5696;SDS011;2873;50.966;7.210;2023-12-22T02:35:12;4.13;;;1.15;;
5696;SDS011;2873;50.966;7.210;2023-12-22T02:37:41;5.80;;;1.00;;
5696;SDS011;2873;50.966;7.210;2023-12-22T02:40:10;10.00;;;1.67;;
5696;SDS011;2873;50.966;7.210;2023-12-22T02:42:36;5.40;;;1.40;;
5696;SDS011;2873;50.966;7.210;2023-12-22T02:45:03;7.45;;;1.75;;
5696;SDS011;2873;50.966;7.210;2023-12-22T02:47:30;5.15;;;1.00;;
5696;SDS011;2873;50.966;7.210;2023-12-22T02:49:57;8.30;;;1.70;;
5696;SDS011;2873;50.966;7.210;2023-12-22T02:52:22;3.53;;;1.00;;
5696;SDS011;2873;50.966;7.210;2023-12-22T02:54:48;10.60;;;1.40;;
5696;SDS011;2873;50.966;7.210;2023-12-22T02:57:13;9.17;;;1.47;;
5696;SDS011;2873;50.966;7.210;2023-12-22T02:59:39;6.68;;;1.83;;
5696;SDS011;2873;50.966;7.210;2023-12-22T03:02:04;3.73;;;1.30;;
5696;SDS011;2873;50.966;7.210;2023-12-22T03:04:33;9.40;;;1.50;;
5696;SDS011;2873;50.966;7.210;2023-12-22T03:06:59;4.65;;;1.42;;
5696;SDS011;2873;50.966;7.210;2023-12-22T03:09:24;5.77;;;1.13;;
5696;SDS011;2873;50.966;7.210;2023-12-22T03:11:50;3.83;;;1.20;;
5696;SDS011;2873;50.966;7.210;2023-12-22T03:14:19;8.75;;;1.65;;
5696;SDS011;2873;50.966;7.210;2023-12-22T03:16:45;9.20;;;1.60;;
5696;SDS011;2873;50.966;7.210;2023-12-22T03:19:10;4.70;;;1.40;;
5696;SDS011;2873;50.966;7.210;2023-12-22T03:21:36;2.90;;;1.02;;
5696;SDS011;2873;50.966;7.210;2023-12-22T03:24:01;11.30;;;1.50;;
5696;SDS011;2873;50.966;7.210;2023-12-22T03:26:27;9.52;;;1.55;;
5696;SDS011;2873;50.966;7.210;2023-12-22T03:28:53;7.13;;;1.20;;
5696;SDS011;2873;50.966;7.210;2023-12-22T03:31:19;15.20;;;1.70;;
5696;SDS011;2873;50.966;7.210;2023-12-22T03:33:44;8.82;;;1.40;;
5696;SDS011;2873;50.966;7.210;2023-12-22T03:36:09;9.13;;;1.20;;
5696;SDS011;2873;50.966;7.210;2023-12-22T03:38:35;6.73;;;1.23;;
5696;SDS011;2873;50.966;7.210;2023-12-22T03:41:01;8.80;;;1.50;;
5696;SDS011;2873;50.966;7.210;2023-12-22T03:43:26;5.33;;;1.00;;
5696;SDS011;2873;50.966;7.210;2023-12-22T03:45:52;6.68;;;1.20;;
5696;SDS011;2873;50.966;7.210;2023-12-22T03:48:17;4.60;;;1.00;;
5696;SDS011;2873;50.966;7.210;2023-12-22T03:50:43;3.30;;;1.02;;
5696;SDS011;2873;50.966;7.210;2023-12-22T03:53:08;6.57;;;1.27;;
5696;SDS011;2873;50.966;7.210;2023-12-22T03:55:34;6.80;;;1.70;;
5696;SDS011;2873;50.966;7.210;2023-12-22T03:57:59;10.33;;;1.70;;
5696;SDS011;2873;50.966;7.210;2023-12-22T04:00:25;6.83;;;1.20;;
5696;SDS011;2873;50.966;7.210;2023-12-22T04:02:50;10.38;;;1.38;;
5696;SDS011;2873;50.966;7.210;2023-12-22T04:05:16;8.33;;;1.30;;
5696;SDS011;2873;50.966;7.210;2023-12-22T04:07:41;9.02;;;1.70;;
5696;SDS011;2873;50.966;7.210;2023-12-22T04:10:07;11.00;;;1.50;;
5696;SDS011;2873;50.966;7.210;2023-12-22T04:12:33;8.77;;;1.60;;
5696;SDS011;2873;50.966;7.210;2023-12-22T04:14:58;1.80;;;0.80;;
5696;SDS011;2873;50.966;7.210;2023-12-22T04:17:24;10.32;;;1.60;;
5696;SDS011;2873;50.966;7.210;2023-12-22T04:19:49;5.40;;;1.00;;
5696;SDS011;2873;50.966;7.210;2023-12-22T04:22:15;7.70;;;1.40;;
5696;SDS011;2873;50.966;7.210;2023-12-22T04:24:40;4.40;;;1.20;;
5696;SDS011;2873;50.966;7.210;2023-12-22T04:27:06;10.02;;;2.13;;
5696;SDS011;2873;50.966;7.210;2023-12-22T04:29:31;12.00;;;2.10;;
5696;SDS011;2873;50.966;7.210;2023-12-22T04:31:57;6.57;;;1.97;;
5696;SDS011;2873;50.966;7.210;2023-12-22T04:34:23;5.60;;;2.23;;
5696;SDS011;2873;50.966;7.210;2023-12-22T04:36:48;7.00;;;2.13;;
5696;SDS011;2873;50.966;7.210;2023-12-22T04:39:14;8.63;;;2.40;;
5696;SDS011;2873;50.966;7.210;2023-12-22T04:41:39;6.70;;;1.97;;
5696;SDS011;2873;50.966;7.210;2023-12-22T04:44:05;11.30;;;2.10;;
5696;SDS011;2873;50.966;7.210;2023-12-22T04:46:30;10.73;;;2.47;;
5696;SDS011;2873;50.966;7.210;2023-12-22T04:48:56;8.35;;;2.22;;
5696;SDS011;2873;50.966;7.210;2023-12-22T04:51:22;13.67;;;2.50;;
5696;SDS011;2873;50.966;7.210;2023-12-22T04:53:48;17.67;;;2.35;;
5696;SDS011;2873;50.966;7.210;2023-12-22T04:56:13;10.15;;;1.70;;
5696;SDS011;2873;50.966;7.210;2023-12-22T04:58:39;3.40;;;2.03;;
5696;SDS011;2873;50.966;7.210;2023-12-22T05:01:04;7.00;;;1.70;;
5696;SDS011;2873;50.966;7.210;2023-12-22T05:03:30;9.97;;;2.57;;
5696;SDS011;2873;50.966;7.210;2023-12-22T05:05:56;9.20;;;2.13;;
5696;SDS011;2873;50.966;7.210;2023-12-22T05:08:21;7.10;;;1.70;;
5696;SDS011;2873;50.966;7.210;2023-12-22T05:10:47;8.07;;;1.90;;
5696;SDS011;2873;50.966;7.210;2023-12-22T05:13:12;10.20;;;2.37;;
5696;SDS011;2873;50.966;7.210;2023-12-22T05:15:38;10.07;;;2.17;;
5696;SDS011;2873;50.966;7.210;2023-12-22T05:18:03;6.80;;;2.07;;
5696;SDS011;2873;50.966;7.210;2023-12-22T05:20:29;8.27;;;1.88;;
5696;SDS011;2873;50.966;7.210;2023-12-22T05:22:54;10.13;;;1.90;;
5696;SDS011;2873;50.966;7.210;2023-12-22T05:25:20;14.80;;;2.08;;
5696;SDS011;2873;50.966;7.210;2023-12-22T05:27:45;10.23;;;2.40;;
5696;SDS011;2873;50.966;7.210;2023-12-22T05:30:11;8.20;;;1.30;;
5696;SDS011;2873;50.966;7.210;2023-12-22T05:32:37;12.57;;;1.65;;
5696;SDS011;2873;50.966;7.210;2023-12-22T05:35:03;4.77;;;1.50;;
5696;SDS011;2873;50.966;7.210;2023-12-22T05:37:29;9.77;;;1.90;;
5696;SDS011;2873;50.966;7.210;2023-12-22T05:39:54;16.83;;;2.08;;
5696;SDS011;2873;50.966;7.210;2023-12-22T05:42:20;11.15;;;1.55;;
5696;SDS011;2873;50.966;7.210;2023-12-22T05:44:46;9.53;;;1.60;;
5696;SDS011;2873;50.966;7.210;2023-12-22T05:47:14;8.60;;;2.25;;
5696;SDS011;2873;50.966;7.210;2023-12-22T05:49:43;10.02;;;2.00;;
5696;SDS011;2873;50.966;7.210;2023-12-22T05:52:09;12.77;;;2.65;;
5696;SDS011;2873;50.966;7.210;2023-12-22T05:54:37;10.77;;;1.77;;
5696;SDS011;2873;50.966;7.210;2023-12-22T05:57:03;10.70;;;1.90;;
5696;SDS011;2873;50.966;7.210;2023-12-22T05:59:31;9.93;;;2.43;;
5696;SDS011;2873;50.966;7.210;2023-12-22T06:01:57;12.65;;;2.63;;
5696;SDS011;2873;50.966;7.210;2023-12-22T06:04:23;14.70;;;2.97;;
5696;SDS011;2873;50.966;7.210;2023-12-22T06:06:49;10.43;;;1.90;;
5696;SDS011;2873;50.966;7.210;2023-12-22T06:09:15;9.10;;;1.60;;
5696;SDS011;2873;50.966;7.210;2023-12-22T06:11:42;11.23;;;1.63;;
5696;SDS011;2873;50.966;7.210;2023-12-22T06:14:07;9.23;;;1.60;;
5696;SDS011;2873;50.966;7.210;2023-12-22T06:16:33;10.13;;;1.73;;
5696;SDS011;2873;50.966;7.210;2023-12-22T06:18:59;20.15;;;2.33;;
5696;SDS011;2873;50.966;7.210;2023-12-22T06:21:24;6.40;;;1.50;;
5696;SDS011;2873;50.966;7.210;2023-12-22T06:23:50;10.15;;;1.80;;
5696;SDS011;2873;50.966;7.210;2023-12-22T06:26:15;13.17;;;2.33;;
5696;SDS011;2873;50.966;7.210;2023-12-22T06:28:41;17.67;;;2.77;;
5696;SDS011;2873;50.966;7.210;2023-12-22T06:31:06;12.90;;;1.70;;
5696;SDS011;2873;50.966;7.210;2023-12-22T06:33:33;7.78;;;1.55;;
5696;SDS011;2873;50.966;7.210;2023-12-22T06:35:59;13.23;;;2.10;;
5696;SDS011;2873;50.966;7.210;2023-12-22T06:38:24;9.27;;;2.08;;
5696;SDS011;2873;50.966;7.210;2023-12-22T06:40:50;9.93;;;2.37;;
5696;SDS011;2873;50.966;7.210;2023-12-22T06:43:15;10.53;;;1.80;;
5696;SDS011;2873;50.966;7.210;2023-12-22T06:45:41;10.50;;;1.87;;
5696;SDS011;2873;50.966;7.210;2023-12-22T06:48:07;11.10;;;1.80;;
5696;SDS011;2873;50.966;7.210;2023-12-22T06:50:34;9.20;;;1.60;;
5696;SDS011;2873;50.966;7.210;2023-12-22T06:53:01;11.48;;;2.00;;
5696;SDS011;2873;50.966;7.210;2023-12-22T06:55:27;10.45;;;2.00;;
5696;SDS011;2873;50.966;7.210;2023-12-22T06:57:53;11.50;;;1.90;;
5696;SDS011;2873;50.966;7.210;2023-12-22T07:00:19;7.40;;;1.80;;
5696;SDS011;2873;50.966;7.210;2023-12-22T07:02:45;11.57;;;1.70;;
5696;SDS011;2873;50.966;7.210;2023-12-22T07:07:46;12.65;;;2.00;;
5696;SDS011;2873;50.966;7.210;2023-12-22T07:10:12;9.43;;;1.90;;
5696;SDS011;2873;50.966;7.210;2023-12-22T07:12:37;9.23;;;2.33;;
5696;SDS011;2873;50.966;7.210;2023-12-22T07:15:04;10.70;;;2.30;;
5696;SDS011;2873;50.966;7.210;2023-12-22T07:17:31;11.83;;;2.40;;
5696;SDS011;2873;50.966;7.210;2023-12-22T07:19:57;8.45;;;1.80;;
5696;SDS011;2873;50.966;7.210;2023-12-22T07:22:23;7.40;;;1.67;;
5696;SDS011;2873;50.966;7.210;2023-12-22T07:24:48;5.37;;;1.50;;
5696;SDS011;2873;50.966;7.210;2023-12-22T07:27:15;9.18;;;1.48;;
5696;SDS011;2873;50.966;7.210;2023-12-22T07:29:40;8.43;;;1.40;;
5696;SDS011;2873;50.966;7.210;2023-12-22T07:32:06;7.40;;;1.63;;
5696;SDS011;2873;50.966;7.210;2023-12-22T07:34:31;9.50;;;1.37;;
5696;SDS011;2873;50.966;7.210;2023-12-22T07:36:57;8.93;;;1.80;;
5696;SDS011;2873;50.966;7.210;2023-12-22T07:39:22;6.00;;;2.27;;
5696;SDS011;2873;50.966;7.210;2023-12-22T07:41:48;7.90;;;2.45;;
5696;SDS011;2873;50.966;7.210;2023-12-22T07:44:13;2.13;;;1.70;;
5696;SDS011;2873;50.966;7.210;2023-12-22T07:46:39;8.15;;;1.70;;
5696;SDS011;2873;50.966;7.210;2023-12-22T07:49:05;3.63;;;1.30;;
5696;SDS011;2873;50.966;7.210;2023-12-22T07:51:30;3.60;;;0.95;;
5696;SDS011;2873;50.966;7.210;2023-12-22T07:53:56;5.20;;;1.30;;
5696;SDS011;2873;50.966;7.210;2023-12-22T07:56:21;4.87;;;1.07;;
5696;SDS011;2873;50.966;7.210;2023-12-22T07:58:47;6.93;;;1.30;;
5696;SDS011;2873;50.966;7.210;2023-12-22T08:01:13;6.27;;;1.20;;
5696;SDS011;2873;50.966;7.210;2023-12-22T08:03:40;6.30;;;1.40;;
5696;SDS011;2873;50.966;7.210;2023-12-22T08:06:06;4.50;;;1.20;;
5696;SDS011;2873;50.966;7.210;2023-12-22T08:08:31;7.60;;;1.30;;
5696;SDS011;2873;50.966;7.210;2023-12-22T08:10:58;8.70;;;1.40;;
5696;SDS011;2873;50.966;7.210;2023-12-22T08:13:24;6.00;;;1.42;;
5696;SDS011;2873;50.966;7.210;2023-12-22T08:15:49;7.90;;;1.40;;
5696;SDS011;2873;50.966;7.210;2023-12-22T08:18:15;5.32;;;1.20;;
5696;SDS011;2873;50.966;7.210;2023-12-22T08:20:41;6.70;;;1.57;;
5696;SDS011;2873;50.966;7.210;2023-12-22T08:23:06;7.03;;;2.85;;
5696;SDS011;2873;50.966;7.210;2023-12-22T08:25:32;9.90;;;2.07;;
5696;SDS011;2873;50.966;7.210;2023-12-22T08:27:58;10.00;;;2.40;;
5696;SDS011;2873;50.966;7.210;2023-12-22T08:30:23;7.10;;;2.40;;
5696;SDS011;2873;50.966;7.210;2023-12-22T08:32:49;13.20;;;3.10;;
5696;SDS011;2873;50.966;7.210;2023-12-22T08:35:15;8.38;;;2.67;;
5696;SDS011;2873;50.966;7.210;2023-12-22T08:37:41;6.88;;;2.70;;
5696;SDS011;2873;50.966;7.210;2023-12-22T08:40:07;12.77;;;2.60;;
5696;SDS011;2873;50.966;7.210;2023-12-22T08:42:33;8.48;;;2.40;;
5696;SDS011;2873;50.966;7.210;2023-12-22T08:44:59;15.30;;;2.83;;
5696;SDS011;2873;50.966;7.210;2023-12-22T08:47:24;14.93;;;3.30;;
5696;SDS011;2873;50.966;7.210;2023-12-22T08:49:50;22.10;;;4.00;;
5696;SDS011;2873;50.966;7.210;2023-12-22T08:52:16;18.60;;;3.50;;
5696;SDS011;2873;50.966;7.210;2023-12-22T08:54:41;19.00;;;3.45;;
5696;SDS011;2873;50.966;7.210;2023-12-22T08:57:07;18.17;;;3.67;;
5696;SDS011;2873;50.966;7.210;2023-12-22T08:59:34;18.13;;;3.67;;
5696;SDS011;2873;50.966;7.210;2023-12-22T09:01:59;20.63;;;3.80;;
5696;SDS011;2873;50.966;7.210;2023-12-22T09:04:25;15.88;;;3.35;;
5696;SDS011;2873;50.966;7.210;2023-12-22T09:06:50;19.67;;;3.63;;
5696;SDS011;2873;50.966;7.210;2023-12-22T09:09:16;28.08;;;4.30;;
5696;SDS011;2873;50.966;7.210;2023-12-22T09:11:42;24.43;;;3.90;;
5696;SDS011;2873;50.966;7.210;2023-12-22T09:14:07;23.98;;;3.58;;
5696;SDS011;2873;50.966;7.210;2023-12-22T09:16:34;17.20;;;3.67;;
5696;SDS011;2873;50.966;7.210;2023-12-22T09:19:00;18.05;;;3.75;;
5696;SDS011;2873;50.966;7.210;2023-12-22T09:21:26;22.87;;;3.73;;
5696;SDS011;2873;50.966;7.210;2023-12-22T09:23:52;21.75;;;3.63;;
5696;SDS011;2873;50.966;7.210;2023-12-22T09:26:17;21.80;;;3.40;;
5696;SDS011;2873;50.966;7.210;2023-12-22T09:28:44;18.58;;;2.80;;
5696;SDS011;2873;50.966;7.210;2023-12-22T09:31:10;15.60;;;3.35;;
5696;SDS011;2873;50.966;7.210;2023-12-22T09:33:37;16.90;;;2.58;;
5696;SDS011;2873;50.966;7.210;2023-12-22T09:36:04;19.27;;;2.90;;
5696;SDS011;2873;50.966;7.210;2023-12-22T09:38:30;16.52;;;3.40;;
5696;SDS011;2873;50.966;7.210;2023-12-22T09:40:56;17.23;;;3.43;;
5696;SDS011;2873;50.966;7.210;2023-12-22T09:43:22;15.73;;;3.65;;
5696;SDS011;2873;50.966;7.210;2023-12-22T09:45:49;19.42;;;3.53;;
5696;SDS011;2873;50.966;7.210;2023-12-22T09:48:15;22.63;;;3.67;;
5696;SDS011;2873;50.966;7.210;2023-12-22T09:50:43;17.20;;;3.33;;
5696;SDS011;2873;50.966;7.210;2023-12-22T09:53:09;14.43;;;2.92;;
5696;SDS011;2873;50.966;7.210;2023-12-22T09:55:37;16.95;;;3.35;;
5696;SDS011;2873;50.966;7.210;2023-12-22T09:58:08;22.27;;;3.72;;
5696;SDS011;2873;50.966;7.210;2023-12-22T10:00:36;10.65;;;3.03;;
5696;SDS011;2873;50.966;7.210;2023-12-22T10:03:06;12.88;;;3.03;;
5696;SDS011;2873;50.966;7.210;2023-12-22T10:05:33;18.70;;;2.95;;
5696;SDS011;2873;50.966;7.210;2023-12-22T10:08:00;11.38;;;2.67;;
5696;SDS011;2873;50.966;7.210;2023-12-22T10:10:27;13.40;;;3.07;;
5696;SDS011;2873;50.966;7.210;2023-12-22T10:12:56;6.82;;;2.15;;
5696;SDS011;2873;50.966;7.210;2023-12-22T10:15:24;16.65;;;2.65;;
5696;SDS011;2873;50.966;7.210;2023-12-22T10:17:51;10.93;;;2.42;;
5696;SDS011;2873;50.966;7.210;2023-12-22T10:20:17;16.63;;;2.87;;
5696;SDS011;2873;50.966;7.210;2023-12-22T10:22:42;15.97;;;3.10;;
5696;SDS011;2873;50.966;7.210;2023-12-22T10:25:08;10.75;;;2.50;;
5696;SDS011;2873;50.966;7.210;2023-12-22T10:27:35;13.97;;;2.60;;
5696;SDS011;2873;50.966;7.210;2023-12-22T10:30:02;11.00;;;2.40;;
5696;SDS011;2873;50.966;7.210;2023-12-22T10:32:28;6.72;;;2.20;;
5696;SDS011;2873;50.966;7.210;2023-12-22T10:34:55;9.00;;;1.90;;
5696;SDS011;2873;50.966;7.210;2023-12-22T10:37:22;9.57;;;1.70;;
5696;SDS011;2873;50.966;7.210;2023-12-22T10:39:51;6.53;;;1.92;;
5696;SDS011;2873;50.966;7.210;2023-12-22T10:42:20;9.00;;;2.20;;
5696;SDS011;2873;50.966;7.210;2023-12-22T10:44:46;5.37;;;1.50;;
5696;SDS011;2873;50.966;7.210;2023-12-22T10:47:12;4.20;;;1.63;;
5696;SDS011;2873;50.966;7.210;2023-12-22T10:49:38;5.38;;;1.95;;
5696;SDS011;2873;50.966;7.210;2023-12-22T10:52:04;5.75;;;1.48;;
5696;SDS011;2873;50.966;7.210;2023-12-22T10:54:30;6.07;;;1.60;;
5696;SDS011;2873;50.966;7.210;2023-12-22T10:56:59;4.35;;;1.50;;
5696;SDS011;2873;50.966;7.210;2023-12-22T10:59:27;4.00;;;1.63;;
5696;SDS011;2873;50.966;7.210;2023-12-22T11:01:54;4.53;;;1.50;;
5696;SDS011;2873;50.966;7.210;2023-12-22T11:04:22;4.03;;;1.40;;
5696;SDS011;2873;50.966;7.210;2023-12-22T11:06:54;9.30;;;1.88;;
5696;SDS011;2873;50.966;7.210;2023-12-22T11:09:22;2.28;;;1.38;;
5696;SDS011;2873;50.966;7.210;2023-12-22T11:11:50;2.40;;;1.50;;
5696;SDS011;2873;50.966;7.210;2023-12-22T11:14:16;1.70;;;1.60;;
5696;SDS011;2873;50.966;7.210;2023-12-22T11:16:42;2.67;;;1.95;;
5696;SDS011;2873;50.966;7.210;2023-12-22T11:19:12;3.88;;;2.10;;
5696;SDS011;2873;50.966;7.210;2023-12-22T11:21:39;5.63;;;2.70;;
5696;SDS011;2873;50.966;7.210;2023-12-22T11:24:05;5.75;;;2.75;;
5696;SDS011;2873;50.966;7.210;2023-12-22T11:26:32;6.90;;;2.40;;
5696;SDS011;2873;50.966;7.210;2023-12-22T11:28:58;8.70;;;2.40;;
5696;SDS011;2873;50.966;7.210;2023-12-22T11:31:25;2.10;;;1.85;;
5696;SDS011;2873;50.966;7.210;2023-12-22T11:33:53;4.10;;;2.20;;
5696;SDS011;2873;50.966;7.210;2023-12-22T11:36:20;5.93;;;2.42;;
5696;SDS011;2873;50.966;7.210;2023-12-22T11:38:47;4.90;;;3.00;;
5696;SDS011;2873;50.966;7.210;2023-12-22T11:41:24;5.28;;;2.10;;
5696;SDS011;2873;50.966;7.210;2023-12-22T11:43:52;4.70;;;2.17;;
5696;SDS011;2873;50.966;7.210;2023-12-22T11:46:18;8.93;;;2.50;;
5696;SDS011;2873;50.966;7.210;2023-12-22T11:48:47;3.97;;;2.10;;
5696;SDS011;2873;50.966;7.210;2023-12-22T11:51:14;3.55;;;1.90;;
5696;SDS011;2873;50.966;7.210;2023-12-22T11:53:41;2.22;;;1.80;;
5696;SDS011;2873;50.966;7.210;2023-12-22T11:56:07;5.45;;;1.70;;
5696;SDS011;2873;50.966;7.210;2023-12-22T12:01:01;4.78;;;1.92;;
5696;SDS011;2873;50.966;7.210;2023-12-22T12:03:30;5.00;;;1.90;;
5696;SDS011;2873;50.966;7.210;2023-12-22T12:08:42;2.72;;;1.50;;
5696;SDS011;2873;50.966;7.210;2023-12-22T12:11:08;5.80;;;2.00;;
5696;SDS011;2873;50.966;7.210;2023-12-22T12:13:33;6.03;;;2.00;;
5696;SDS011;2873;50.966;7.210;2023-12-22T12:15:59;2.20;;;1.40;;
5696;SDS011;2873;50.966;7.210;2023-12-22T12:18:29;4.80;;;2.20;;
5696;SDS011;2873;50.966;7.210;2023-12-22T12:20:56;6.30;;;2.20;;
5696;SDS011;2873;50.966;7.210;2023-12-22T12:23:26;2.40;;;1.80;;
5696;SDS011;2873;50.966;7.210;2023-12-22T12:25:53;4.07;;;2.20;;
5696;SDS011;2873;50.966;7.210;2023-12-22T12:28:29;3.05;;;1.30;;
5696;SDS011;2873;50.966;7.210;2023-12-22T12:30:59;2.20;;;1.30;;
5696;SDS011;2873;50.966;7.210;2023-12-22T12:33:28;2.08;;;1.50;;
5696;SDS011;2873;50.966;7.210;2023-12-22T12:35:54;3.90;;;1.40;;
5696;SDS011;2873;50.966;7.210;2023-12-22T12:38:23;4.13;;;1.50;;
5696;SDS011;2873;50.966;7.210;2023-12-22T12:41:05;3.30;;;1.30;;
5696;SDS011;2873;50.966;7.210;2023-12-22T12:43:30;1.97;;;1.60;;
5696;SDS011;2873;50.966;7.210;2023-12-22T12:46:03;6.38;;;1.40;;
5696;SDS011;2873;50.966;7.210;2023-12-22T12:48:29;4.18;;;1.20;;
5696;SDS011;2873;50.966;7.210;2023-12-22T12:50:55;6.60;;;1.70;;
5696;SDS011;2873;50.966;7.210;2023-12-22T12:53:25;2.45;;;1.50;;
5696;SDS011;2873;50.966;7.210;2023-12-22T12:55:55;5.90;;;1.40;;
5696;SDS011;2873;50.966;7.210;2023-12-22T12:58:21;7.18;;;1.20;;
5696;SDS011;2873;50.966;7.210;2023-12-22T13:00:46;6.10;;;1.50;;
5696;SDS011;2873;50.966;7.210;2023-12-22T13:03:12;2.42;;;1.30;;
5696;SDS011;2873;50.966;7.210;2023-12-22T13:05:37;3.63;;;1.43;;
5696;SDS011;2873;50.966;7.210;2023-12-22T13:08:09;8.77;;;1.40;;
5696;SDS011;2873;50.966;7.210;2023-12-22T13:10:36;3.00;;;1.70;;
5696;SDS011;2873;50.966;7.210;2023-12-22T13:13:02;2.78;;;1.08;;
5696;SDS011;2873;50.966;7.210;2023-12-22T13:15:28;5.60;;;1.45;;
5696;SDS011;2873;50.966;7.210;2023-12-22T13:17:54;2.80;;;1.20;;
5696;SDS011;2873;50.966;7.210;2023-12-22T13:20:20;3.10;;;1.20;;
5696;SDS011;2873;50.966;7.210;2023-12-22T13:22:46;4.10;;;0.80;;
5696;SDS011;2873;50.966;7.210;2023-12-22T13:25:12;3.95;;;1.50;;
5696;SDS011;2873;50.966;7.210;2023-12-22T13:27:47;3.95;;;1.40;;
5696;SDS011;2873;50.966;7.210;2023-12-22T13:30:14;4.90;;;1.20;;
5696;SDS011;2873;50.966;7.210;2023-12-22T13:32:58;3.00;;;1.40;;
5696;SDS011;2873;50.966;7.210;2023-12-22T13:35:24;3.58;;;1.00;;
5696;SDS011;2873;50.966;7.210;2023-12-22T13:37:51;2.40;;;1.20;;
5696;SDS011;2873;50.966;7.210;2023-12-22T13:40:16;3.60;;;1.20;;
5696;SDS011;2873;50.966;7.210;2023-12-22T13:42:42;6.95;;;1.00;;
5696;SDS011;2873;50.966;7.210;2023-12-22T13:45:11;7.50;;;1.40;;
5696;SDS011;2873;50.966;7.210;2023-12-22T13:47:43;2.70;;;1.30;;
5696;SDS011;2873;50.966;7.210;2023-12-22T13:50:14;2.75;;;1.30;;
5696;SDS011;2873;50.966;7.210;2023-12-22T13:52:41;1.40;;;1.10;;
5696;SDS011;2873;50.966;7.210;2023-12-22T13:55:15;4.40;;;1.20;;
5696;SDS011;2873;50.966;7.210;2023-12-22T13:57:41;2.92;;;1.17;;
5696;SDS011;2873;50.966;7.210;2023-12-22T14:02:45;2.20;;;1.50;;
5696;SDS011;2873;50.966;7.210;2023-12-22T14:05:11;3.80;;;1.20;;
5696;SDS011;2873;50.966;7.210;2023-12-22T14:07:37;3.57;;;1.80;;
5696;SDS011;2873;50.966;7.210;2023-12-22T14:10:06;4.60;;;1.70;;
5696;SDS011;2873;50.966;7.210;2023-12-22T14:12:32;3.00;;;1.40;;
5696;SDS011;2873;50.966;7.210;2023-12-22T14:14:58;5.70;;;1.48;;
5696;SDS011;2873;50.966;7.210;2023-12-22T14:17:23;4.53;;;1.88;;
5696;SDS011;2873;50.966;7.210;2023-12-22T14:19:49;3.20;;;1.20;;
5696;SDS011;2873;50.966;7.210;2023-12-22T14:22:15;4.25;;;1.70;;
5696;SDS011;2873;50.966;7.210;2023-12-22T14:24:40;5.67;;;1.47;;
5696;SDS011;2873;50.966;7.210;2023-12-22T14:27:06;4.55;;;1.50;;
5696;SDS011;2873;50.966;7.210;2023-12-22T14:29:32;2.47;;;1.53;;
5696;SDS011;2873;50.966;7.210;2023-12-22T14:31:58;1.60;;;1.38;;
5696;SDS011;2873;50.966;7.210;2023-12-22T14:34:23;4.10;;;1.47;;
5696;SDS011;2873;50.966;7.210;2023-12-22T14:36:49;4.60;;;1.70;;
5696;SDS011;2873;50.966;7.210;2023-12-22T14:39:15;4.30;;;1.90;;
5696;SDS011;2873;50.966;7.210;2023-12-22T14:41:40;3.30;;;1.50;;
5696;SDS011;2873;50.966;7.210;2023-12-22T14:44:09;4.57;;;1.57;;
5696;SDS011;2873;50.966;7.210;2023-12-22T14:46:38;5.15;;;1.98;;
5696;SDS011;2873;50.966;7.210;2023-12-22T14:49:04;2.42;;;1.42;;
5696;SDS011;2873;50.966;7.210;2023-12-22T14:51:34;5.25;;;1.65;;
5696;SDS011;2873;50.966;7.210;2023-12-22T14:54:04;5.28;;;1.80;;
5696;SDS011;2873;50.966;7.210;2023-12-22T14:56:38;4.30;;;1.20;;
5696;SDS011;2873;50.966;7.210;2023-12-22T14:59:05;3.40;;;1.55;;
5696;SDS011;2873;50.966;7.210;2023-12-22T15:01:34;6.47;;;1.50;;
5696;SDS011;2873;50.966;7.210;2023-12-22T15:04:00;5.20;;;1.60;;
5696;SDS011;2873;50.966;7.210;2023-12-22T15:06:27;5.53;;;1.60;;
5696;SDS011;2873;50.966;7.210;2023-12-22T15:08:54;8.82;;;1.67;;
5696;SDS011;2873;50.966;7.210;2023-12-22T15:11:19;8.15;;;1.38;;
5696;SDS011;2873;50.966;7.210;2023-12-22T15:13:45;6.17;;;1.30;;
5696;SDS011;2873;50.966;7.210;2023-12-22T15:16:10;5.82;;;1.20;;
5696;SDS011;2873;50.966;7.210;2023-12-22T15:18:36;2.90;;;1.80;;
5696;SDS011;2873;50.966;7.210;2023-12-22T15:21:02;6.72;;;1.90;;